Ball Bluff, Minnesota
Current Conditions -  °F | °C
As of 2:47 PM on Thursday 18 Dec 2014 (Local Time) from KHZX Reporting Station
Overcast Overcast  
Wind Chill: 16°   Ceiling: 1000
Heat Index: 23°   Visibility: 10mi
Dew Point: 21°   Wind: 6mph
Humidity: 93%   Direction: 130°SE
Pressure: 30.23"   Gusts: NA
Location:  46.9333°N, 93.1876°W
Report Text: KHZX 182047Z AUTO 13005KT 10SM OVC010 M05/M06 A3023 RMK AO2
Loading
Personal Weather Stations






























Interactive Weather Map New forecast layout! Learn more

10-Day Weather Forecast

Advertisements
Track Severe Weather on mobile